Time;durP1;ratioP1;P1;durP2;ratioP2;P2;SDS_P1;SDS_P2;PMS_P1;PMS_P2;Temp;Humidity;BMP_temperature;BMP_pressure;BME280_temperature;BME280_humidity;BME280_pressure;Samples;Min_cycle;Max_cycle;Signal;HPM_P1;HPM_P2
2022/08/19 00:00:37;;;;;;;9.63;4.92;;;;;;;22.72;59.04;99075.79;1715270;83;21072;-42
2022/08/19 00:03:04;;;;;;;8.75;4.87;;;;;;;22.70;59.20;99077.44;1715400;83;21902;-42
2022/08/19 00:05:32;;;;;;;9.35;4.35;;;;;;;22.67;59.45;99073.56;1715576;83;21071;-42
2022/08/19 00:07:59;;;;;;;7.72;4.53;;;;;;;22.67;59.77;99084.63;1715684;83;21458;-42
2022/08/19 00:10:26;;;;;;;17.48;5.28;;;;;;;22.69;59.84;99081.42;1715567;83;20997;-42
2022/08/19 00:12:53;;;;;;;19.45;6.60;;;;;;;22.71;59.85;99088.66;1715411;83;21009;-42
2022/08/19 00:15:22;;;;;;;13.08;4.78;;;;;;;22.70;59.88;99083.77;1715257;83;23181;-42
2022/08/19 00:17:49;;;;;;;11.70;4.75;;;;;;;22.71;60.24;99085.30;1715226;83;21076;-42
2022/08/19 00:20:18;;;;;;;9.23;4.83;;;;;;;22.69;60.38;99088.33;1715451;83;21463;-42
2022/08/19 00:22:45;;;;;;;9.73;4.95;;;;;;;22.66;60.51;99086.44;1715343;83;21028;-42
2022/08/19 00:25:13;;;;;;;10.20;5.20;;;;;;;22.59;60.62;99090.23;1715090;83;21430;-42
2022/08/19 00:27:40;;;;;;;8.73;5.10;;;;;;;22.51;60.80;99099.36;1715417;83;21143;-42
2022/08/19 00:30:10;;;;;;;11.12;4.50;;;;;;;22.41;60.82;99090.07;1715220;83;20960;-42
2022/08/19 00:32:37;;;;;;;9.78;4.78;;;;;;;22.32;61.05;99091.34;1715720;83;21110;-42
2022/08/19 00:35:06;;;;;;;10.60;4.45;;;;;;;22.27;61.21;99095.44;1715166;83;21021;-42
2022/08/19 00:37:34;;;;;;;8.93;5.40;;;;;;;22.25;61.30;99092.97;1715474;83;21032;-42
2022/08/19 00:40:04;;;;;;;13.70;5.03;;;;;;;22.19;61.62;99094.13;1715350;83;21146;-42
2022/08/19 00:42:31;;;;;;;10.88;5.05;;;;;;;22.15;61.87;99097.62;1715361;83;21080;-42
2022/08/19 00:44:58;;;;;;;11.90;4.72;;;;;;;22.12;62.10;99100.50;1715366;83;21024;-42
2022/08/19 00:47:25;;;;;;;9.53;5.20;;;;;;;22.08;62.13;99093.69;1715526;83;21020;-42
2022/08/19 00:49:55;;;;;;;12.03;5.72;;;;;;;22.04;62.12;99096.58;1715370;83;21461;-42
2022/08/19 00:52:33;;;;;;;13.20;5.05;;;;;;;21.98;62.17;99095.58;1715524;83;21119;-42
2022/08/19 00:55:00;;;;;;;9.83;4.90;;;;;;;21.95;62.37;99094.31;1715528;83;20956;-42
2022/08/19 00:57:32;;;;;;;10.60;5.08;;;;;;;21.94;62.37;99094.92;1715600;83;20961;-42
2022/08/19 00:59:59;;;;;;;12.05;5.47;;;;;;;21.93;62.33;99103.63;1715566;83;21023;-42
2022/08/19 01:02:27;;;;;;;8.33;5.10;;;;;;;21.90;62.54;99102.52;1715368;83;21411;-42
2022/08/19 01:04:54;;;;;;;7.42;5.15;;;;;;;21.87;62.68;99100.65;1715100;83;23172;-42
2022/08/19 01:07:21;;;;;;;10.90;5.35;;;;;;;21.85;62.93;99095.39;1715218;83;20956;-42
2022/08/19 01:09:48;;;;;;;7.53;5.10;;;;;;;21.83;62.99;99097.84;1715203;83;21673;-42
2022/08/19 01:12:16;;;;;;;11.75;5.05;;;;;;;21.82;63.00;99102.58;1715342;83;21503;-42
2022/08/19 01:14:43;;;;;;;14.43;5.50;;;;;;;21.84;63.06;99090.47;1715310;83;21044;-42
2022/08/19 01:17:10;;;;;;;13.28;5.53;;;;;;;21.89;63.09;99094.06;1715243;83;22122;-42
2022/08/19 01:19:40;;;;;;;10.72;5.05;;;;;;;21.92;62.96;99091.81;1715302;83;21000;-42
2022/08/19 01:22:31;;;;;;;10.10;5.25;;;;;;;21.93;62.90;99089.23;1715206;83;21688;-42
2022/08/19 01:24:59;;;;;;;11.33;5.70;;;;;;;21.93;63.04;99096.13;1715246;83;21020;-42
2022/08/19 01:27:26;;;;;;;13.88;5.50;;;;;;;21.89;62.94;99095.45;1710726;83;20997;-42
2022/08/19 01:29:53;;;;;;;12.03;5.80;;;;;;;21.89;62.82;99100.97;1715218;83;21228;-42
2022/08/19 01:32:20;;;;;;;11.03;5.75;;;;;;;21.89;62.91;99098.20;1715403;83;21526;-42
2022/08/19 01:34:48;;;;;;;8.85;5.35;;;;;;;21.87;62.89;99102.03;1715502;83;21036;-42
2022/08/19 01:37:15;;;;;;;9.68;5.25;;;;;;;21.87;63.13;99097.11;1710378;83;20945;-42
2022/08/19 01:39:42;;;;;;;12.03;5.62;;;;;;;21.89;63.12;99100.97;1707828;84;21009;-42
2022/08/19 01:42:14;;;;;;;9.60;5.15;;;;;;;21.91;63.19;99095.78;1707675;84;21145;-42
2022/08/19 01:44:40;;;;;;;11.05;5.40;;;;;;;21.92;63.15;99095.95;1707825;83;20961;-42
2022/08/19 01:47:09;;;;;;;11.30;5.33;;;;;;;21.90;63.08;99094.23;1707708;84;21043;-42
2022/08/19 01:49:36;;;;;;;15.63;5.87;;;;;;;21.87;63.01;99099.27;1708119;84;21558;-42
2022/08/19 01:52:05;;;;;;;12.07;5.80;;;;;;;21.82;63.13;99098.44;1707659;84;21005;-42
2022/08/19 01:54:33;;;;;;;9.23;5.85;;;;;;;21.77;63.20;99088.55;1707712;84;21149;-42
2022/08/19 01:57:04;;;;;;;10.03;5.55;;;;;;;21.69;63.33;99087.98;1707688;84;20989;-42
2022/08/19 01:59:36;;;;;;;13.68;5.40;;;;;;;21.65;63.58;99092.23;1707798;84;22029;-42
2022/08/19 02:02:06;;;;;;;8.30;5.58;;;;;;;21.68;63.56;99095.52;1708001;84;21012;-42
2022/08/19 02:04:34;;;;;;;14.95;5.87;;;;;;;21.67;63.53;99091.80;1707722;84;21033;-42
2022/08/19 02:07:01;;;;;;;9.73;5.25;;;;;;;21.63;63.66;99093.91;1708168;84;21228;-42
2022/08/19 02:09:28;;;;;;;9.03;5.60;;;;;;;21.60;63.64;99097.52;1707586;84;21025;-42
2022/08/19 02:11:57;;;;;;;8.65;5.67;;;;;;;21.56;63.79;99094.87;1707888;84;21579;-42
2022/08/19 02:14:24;;;;;;;13.03;5.57;;;;;;;21.52;63.90;99084.56;1708248;84;21009;-42
2022/08/19 02:16:51;;;;;;;13.13;5.37;;;;;;;21.46;63.95;99085.53;1707916;84;21032;-42
2022/08/19 02:19:18;;;;;;;16.23;6.10;;;;;;;21.38;64.06;99085.59;1707996;84;21259;-42
2022/08/19 02:21:46;;;;;;;11.97;5.75;;;;;;;21.34;64.06;99086.30;1707981;84;20941;-42
2022/08/19 02:24:13;;;;;;;13.48;5.90;;;;;;;21.30;64.18;99087.77;1707814;84;20996;-41
2022/08/19 02:26:42;;;;;;;11.22;6.20;;;;;;;21.27;64.26;99096.14;1707924;84;20981;-42
2022/08/19 02:29:10;;;;;;;12.20;6.33;;;;;;;21.24;64.19;99088.94;1707678;84;21037;-42
2022/08/19 02:31:37;;;;;;;11.22;5.92;;;;;;;21.17;64.26;99087.74;1707766;84;21272;-42
2022/08/19 02:34:04;;;;;;;9.75;5.53;;;;;;;21.09;64.33;99086.37;1707649;84;20977;-42
2022/08/19 02:36:31;;;;;;;10.05;5.55;;;;;;;21.08;64.30;99093.70;1709350;83;21040;-42
2022/08/19 02:38:58;;;;;;;10.45;5.92;;;;;;;21.04;63.96;99099.31;1715463;83;21519;-42
2022/08/19 02:41:32;;;;;;;14.73;6.10;;;;;;;20.94;63.87;99105.89;1715458;83;21045;-42
2022/08/19 02:44:01;;;;;;;11.12;5.75;;;;;;;20.80;64.03;99111.78;1715607;83;21542;-41
2022/08/19 02:46:30;;;;;;;10.35;6.20;;;;;;;20.70;64.25;99111.45;1715397;83;20985;-41
2022/08/19 02:49:01;;;;;;;10.90;6.30;;;;;;;20.61;64.40;99107.17;1715665;83;21068;-42
2022/08/19 02:51:39;;;;;;;9.25;5.97;;;;;;;20.59;64.40;99112.33;1715579;83;21051;-42
2022/08/19 02:54:07;;;;;;;11.28;6.10;;;;;;;20.52;64.69;99105.04;1715431;83;21040;-41
2022/08/19 02:56:38;;;;;;;12.82;5.53;;;;;;;20.48;64.96;99106.34;1715305;83;21225;-41
2022/08/19 02:59:09;;;;;;;8.55;6.22;;;;;;;20.49;65.10;99096.84;1715578;83;20929;-42
2022/08/19 03:01:36;;;;;;;12.53;5.85;;;;;;;20.49;65.32;99100.98;1715354;83;20989;-41
2022/08/19 03:04:05;;;;;;;9.33;6.05;;;;;;;20.46;65.62;99101.85;1715112;83;21586;-42
2022/08/19 03:06:32;;;;;;;14.75;6.72;;;;;;;20.44;65.88;99106.41;1715404;83;21040;-42
2022/08/19 03:08:59;;;;;;;8.48;5.60;;;;;;;20.42;66.13;99109.44;1715367;83;23135;-42
2022/08/19 03:11:29;;;;;;;12.25;6.03;;;;;;;20.41;66.26;99104.53;1715568;83;21506;-42
2022/08/19 03:13:56;;;;;;;12.25;6.08;;;;;;;20.43;66.40;99107.61;1715711;83;21005;-42
2022/08/19 03:16:25;;;;;;;11.83;6.45;;;;;;;20.46;66.42;99105.98;1715517;83;21005;-41
2022/08/19 03:18:52;;;;;;;9.18;6.10;;;;;;;20.45;66.41;99113.47;1715544;83;21009;-42
2022/08/19 03:21:25;;;;;;;10.20;6.20;;;;;;;20.45;66.42;99117.59;1710972;83;21256;-42
2022/08/19 03:23:56;;;;;;;14.93;6.42;;;;;;;20.46;66.12;99121.12;1715815;83;20993;-42
2022/08/19 03:26:22;;;;;;;8.80;5.87;;;;;;;20.43;65.88;99120.00;1715298;83;21016;-42
2022/08/19 03:28:50;;;;;;;12.75;5.67;;;;;;;20.46;65.75;99127.41;1715632;83;21445;-42
2022/08/19 03:31:21;;;;;;;12.70;5.90;;;;;;;20.47;65.47;99129.56;1715300;83;21072;-41
2022/08/19 03:33:49;;;;;;;10.32;5.95;;;;;;;20.46;65.36;99129.39;1715311;83;21794;-41
2022/08/19 03:36:24;;;;;;;13.95;6.40;;;;;;;20.39;65.38;99125.59;1715199;83;21036;-41
2022/08/19 03:38:55;;;;;;;12.63;6.67;;;;;;;20.31;65.45;99124.23;1715310;83;20957;-42
2022/08/19 03:41:25;;;;;;;11.83;6.42;;;;;;;20.25;65.59;99127.30;1715351;83;21075;-41
2022/08/19 03:43:53;;;;;;;12.28;6.70;;;;;;;20.18;65.89;99113.72;1715561;83;20977;-41
2022/08/19 03:46:25;;;;;;;10.58;6.28;;;;;;;20.18;66.02;99123.35;1715400;83;21511;-41
2022/08/19 03:48:54;;;;;;;14.20;6.37;;;;;;;20.21;66.15;99122.48;1711810;83;21020;-41
2022/08/19 03:51:25;;;;;;;11.88;6.90;;;;;;;20.28;66.17;99127.05;1686796;85;21056;-41
2022/08/19 03:53:54;;;;;;;11.43;7.28;;;;;;;20.25;66.19;99125.91;1686822;85;21020;-41
2022/08/19 03:56:21;;;;;;;8.40;6.42;;;;;;;20.21;66.38;99127.20;1686484;85;21542;-42
2022/08/19 03:58:48;;;;;;;8.70;6.92;;;;;;;20.20;66.50;99125.05;1686617;85;21213;-41
2022/08/19 04:01:19;;;;;;;11.43;6.40;;;;;;;20.18;66.55;99124.73;1686537;85;20972;-42
2022/08/19 04:03:47;;;;;;;10.53;6.35;;;;;;;20.17;66.73;99128.67;1686760;85;21649;-41
2022/08/19 04:06:21;;;;;;;9.68;6.58;;;;;;;20.20;66.82;99133.31;1721519;83;20949;-42
2022/08/19 04:08:50;;;;;;;11.53;6.87;;;;;;;20.26;66.83;99128.84;1686718;84;21067;-42
2022/08/19 04:11:23;;;;;;;10.97;6.70;;;;;;;20.30;66.80;99137.82;1721805;82;21228;-41
2022/08/19 04:13:52;;;;;;;12.13;6.45;;;;;;;20.35;66.79;99142.81;1721480;83;22230;-41
2022/08/19 04:16:20;;;;;;;12.37;7.42;;;;;;;20.39;66.81;99140.74;1681908;85;21519;-42
2022/08/19 04:18:47;;;;;;;10.18;6.50;;;;;;;20.41;66.90;99147.20;1721858;83;21057;-42
2022/08/19 04:21:21;;;;;;;13.55;6.90;;;;;;;20.45;66.89;99154.00;1721651;83;21625;-41
2022/08/19 04:23:48;;;;;;;12.15;6.53;;;;;;;20.51;66.83;99153.05;1720611;83;21574;-41
2022/08/19 04:26:25;;;;;;;18.23;7.60;;;;;;;20.57;66.87;99154.09;1686558;84;21008;-41
2022/08/19 04:28:52;;;;;;;14.87;6.92;;;;;;;20.59;66.94;99150.29;1721877;82;21028;-41
2022/08/19 04:31:28;;;;;;;14.53;6.70;;;;;;;20.62;67.07;99151.42;1721504;83;21515;-41
2022/08/19 04:33:58;;;;;;;14.30;6.00;;;;;;;20.65;67.09;99149.95;1720807;83;21025;-42
2022/08/19 04:36:28;;;;;;;12.68;6.08;;;;;;;20.73;67.18;99152.68;1720428;83;21257;-41
2022/08/19 04:39:00;;;;;;;13.30;6.12;;;;;;;20.84;67.19;99156.55;1686400;84;21087;-41
2022/08/19 04:44:13;;;;;;;8.85;5.62;;;;;;;20.95;66.90;99163.94;1686490;85;21541;-41
2022/08/19 04:46:40;;;;;;;14.35;5.92;;;;;;;21.01;66.60;99162.19;1686710;85;20992;-42
2022/08/19 04:49:08;;;;;;;12.40;5.80;;;;;;;21.03;66.46;99157.02;1721370;83;21151;-42
2022/08/19 04:51:35;;;;;;;11.18;5.10;;;;;;;21.08;66.29;99153.73;1686510;84;20965;-42
2022/08/19 04:54:03;;;;;;;11.30;5.20;;;;;;;21.19;66.02;99160.38;1686644;85;20992;-42
2022/08/19 04:56:30;;;;;;;7.30;5.08;;;;;;;21.29;65.88;99159.31;1721606;82;21520;-41
2022/08/19 04:58:57;;;;;;;13.70;5.90;;;;;;;21.40;65.93;99165.88;1721637;83;21048;-42
2022/08/19 05:01:28;;;;;;;7.70;5.45;;;;;;;21.49;65.55;99166.83;1721497;83;21254;-42
2022/08/19 05:03:56;;;;;;;10.20;5.33;;;;;;;21.58;65.28;99166.17;1721576;82;20973;-41
2022/08/19 05:06:23;;;;;;;7.47;5.17;;;;;;;21.69;64.72;99169.38;1721980;83;21088;-42
2022/08/19 05:08:50;;;;;;;14.70;5.92;;;;;;;21.81;64.35;99168.64;1721367;83;21009;-41
2022/08/19 05:11:21;;;;;;;13.60;5.55;;;;;;;21.92;63.89;99162.80;1721414;83;21005;-42
2022/08/19 05:13:48;;;;;;;11.28;5.58;;;;;;;21.98;63.42;99161.83;1721287;82;21968;-42
2022/08/19 05:16:17;;;;;;;9.60;5.47;;;;;;;22.04;63.09;99155.93;1686527;85;21020;-41
2022/08/19 05:24:16;;;;;;;10.93;5.20;;;;;;;22.18;62.11;99158.84;1686723;85;21033;-42
2022/08/19 05:26:47;;;;;;;8.58;5.42;;;;;;;22.22;62.21;99162.27;1686496;85;21154;-42
2022/08/19 05:29:18;;;;;;;11.12;5.30;;;;;;;22.29;62.05;99159.30;1721536;83;21887;-42
2022/08/19 05:31:49;;;;;;;10.45;5.20;;;;;;;22.39;61.68;99158.79;1686569;85;21088;-42
2022/08/19 05:34:18;;;;;;;13.13;5.97;;;;;;;22.48;61.27;99158.88;1721478;83;21049;-42
2022/08/19 05:36:45;;;;;;;11.70;5.70;;;;;;;22.52;60.83;99161.69;1686456;85;21087;-42
2022/08/19 05:39:16;;;;;;;10.32;5.37;;;;;;;22.57;60.83;99160.96;1679556;85;21160;-42
2022/08/19 05:41:46;;;;;;;9.18;5.00;;;;;;;22.63;61.06;99164.72;1713720;83;21083;-42
2022/08/19 05:44:13;;;;;;;10.68;5.15;;;;;;;22.71;61.07;99164.05;1679302;85;21044;-42
2022/08/19 05:46:42;;;;;;;13.30;5.78;;;;;;;22.78;60.82;99165.21;1679137;85;21049;-42
2022/08/19 05:49:09;;;;;;;11.05;5.10;;;;;;;22.84;60.91;99162.66;1703634;83;21023;-42
2022/08/19 05:52:50;;;;;;;13.70;5.80;;;;;;;22.98;60.43;99153.88;1782209;79;22627;-42
2022/08/19 05:55:19;;;;;;;11.00;5.50;;;;;;;22.93;60.06;99166.27;1755450;81;21010;-42
2022/08/19 05:57:47;;;;;;;11.05;5.40;;;;;;;22.96;60.17;99162.61;1755979;81;22108;-42
2022/08/19 06:00:15;;;;;;;11.80;5.50;;;;;;;22.99;60.11;99163.72;1755656;81;20933;-42
2022/08/19 06:02:43;;;;;;;18.98;5.60;;;;;;;23.06;59.98;99168.21;1755490;81;21029;-42
2022/08/19 06:05:10;;;;;;;10.08;4.90;;;;;;;23.16;59.83;99157.39;1755740;81;21050;-42
2022/08/19 06:07:39;;;;;;;15.17;4.80;;;;;;;23.25;59.94;99158.23;1750479;81;21228;-42
2022/08/19 06:10:08;;;;;;;14.98;5.33;;;;;;;23.34;59.52;99149.22;1748967;82;21761;-42
2022/08/19 06:12:35;;;;;;;7.22;4.83;;;;;;;23.40;59.08;99153.73;1748977;82;21016;-42
2022/08/19 06:15:07;;;;;;;8.48;4.90;;;;;;;23.47;58.83;99156.89;1748854;82;20969;-42
2022/08/19 06:17:34;;;;;;;13.20;5.60;;;;;;;23.52;58.73;99153.54;1748762;82;20938;-42
2022/08/19 06:20:06;;;;;;;9.98;5.20;;;;;;;23.58;58.42;99153.09;1748750;82;21009;-42
2022/08/19 06:22:41;;;;;;;14.00;5.37;;;;;;;23.64;58.51;99158.21;1748541;81;21226;-42
2022/08/19 06:25:09;;;;;;;9.18;5.12;;;;;;;23.70;58.73;99155.63;1730140;81;20992;-42
2022/08/19 06:27:38;;;;;;;8.33;5.47;;;;;;;23.76;58.83;99171.22;1694477;84;20940;-42
2022/08/19 06:30:07;;;;;;;13.15;4.97;;;;;;;23.82;58.30;99164.45;1694538;84;21518;-42
2022/08/19 06:32:33;;;;;;;10.68;4.87;;;;;;;23.86;58.00;99161.57;1667385;84;21052;-42
2022/08/19 06:35:00;;;;;;;10.78;5.50;;;;;;;23.89;58.08;99155.11;1694613;84;21391;-42
2022/08/19 06:37:27;;;;;;;13.00;4.95;;;;;;;23.95;57.79;99157.45;1694656;84;21087;-42
2022/08/19 06:39:54;;;;;;;11.03;5.20;;;;;;;24.01;57.55;99155.64;1694628;84;20921;-42
2022/08/19 06:42:21;;;;;;;12.70;5.28;;;;;;;24.06;57.91;99155.05;1694839;83;20980;-42
2022/08/19 06:44:49;;;;;;;13.05;5.15;;;;;;;24.09;57.67;99155.52;1694621;84;21079;-42
2022/08/19 06:47:19;;;;;;;8.30;4.45;;;;;;;24.11;57.38;99163.52;1694771;84;21082;-42
2022/08/19 06:49:46;;;;;;;9.65;4.83;;;;;;;24.16;56.66;99162.14;1695046;84;20948;-42
2022/08/19 06:52:14;;;;;;;7.97;4.80;;;;;;;24.22;56.45;99163.13;1690011;84;20937;-42
2022/08/19 06:54:42;;;;;;;12.93;5.10;;;;;;;24.28;56.12;99166.84;1687209;85;21399;-42
2022/08/19 06:57:13;;;;;;;11.43;5.17;;;;;;;24.35;56.39;99174.86;1687242;85;21032;-42
2022/08/19 06:59:37;;;;;;;8.85;4.92;;;;;;;24.43;56.41;99169.21;1722018;83;23169;-42
2022/08/19 07:02:06;;;;;;;12.90;5.25;;;;;;;24.51;56.41;99166.30;1721992;83;21756;-42
2022/08/19 07:04:34;;;;;;;11.90;4.90;;;;;;;24.60;55.91;99166.31;1686925;85;21566;-42
2022/08/19 07:07:09;;;;;;;13.03;4.87;;;;;;;24.67;55.11;99166.64;1721621;82;21559;-42
2022/08/19 07:09:38;;;;;;;12.68;4.97;;;;;;;24.72;54.78;99165.27;1721769;83;21048;-42
2022/08/19 07:12:09;;;;;;;9.53;4.83;;;;;;;24.78;54.81;99155.89;1686747;85;21141;-42
2022/08/19 07:14:39;;;;;;;10.88;4.78;;;;;;;24.86;54.75;99148.80;1686880;85;21549;-42
2022/08/19 07:17:10;;;;;;;10.95;5.08;;;;;;;24.97;54.88;99149.16;1686618;85;21094;-42
2022/08/19 07:19:37;;;;;;;12.07;5.03;;;;;;;25.02;54.82;99158.25;1722073;82;21021;-42
2022/08/19 07:22:06;;;;;;;8.38;4.40;;;;;;;25.12;54.52;99159.02;1721619;83;21618;-42
2022/08/19 07:24:33;;;;;;;10.85;4.65;;;;;;;25.21;54.24;99164.56;1686598;85;21234;-42
2022/08/19 07:27:02;;;;;;;10.75;4.75;;;;;;;25.30;53.56;99163.16;1686426;85;21621;-42
2022/08/19 07:29:33;;;;;;;12.60;5.15;;;;;;;25.37;53.56;99161.45;1722037;82;21020;-42
2022/08/19 07:32:00;;;;;;;12.53;4.67;;;;;;;25.47;53.17;99167.75;1686735;84;21032;-42
2022/08/19 07:34:29;;;;;;;13.93;5.30;;;;;;;25.54;52.34;99163.28;1703349;83;21033;-42
2022/08/19 07:36:57;;;;;;;11.90;4.87;;;;;;;25.57;52.50;99171.31;1687057;85;21510;-42
2022/08/19 07:39:28;;;;;;;11.33;4.53;;;;;;;25.63;52.47;99168.84;1686622;85;21060;-42
2022/08/19 07:41:55;;;;;;;11.05;5.15;;;;;;;25.71;52.48;99171.44;1721736;82;20966;-42
2022/08/19 07:44:22;;;;;;;15.40;4.85;;;;;;;25.79;51.64;99174.67;1721566;83;21421;-42
2022/08/19 07:46:52;;;;;;;11.60;5.08;;;;;;;25.81;50.96;99169.41;1686624;85;21044;-42
2022/08/19 07:49:20;;;;;;;10.03;4.72;;;;;;;25.82;51.43;99179.28;1721841;82;21088;-42
2022/08/19 07:51:50;;;;;;;13.18;4.80;;;;;;;25.88;51.57;99176.03;1723140;83;21013;-42
2022/08/19 07:54:18;;;;;;;11.75;4.70;;;;;;;25.96;50.79;99181.41;1726610;83;21586;-42
2022/08/19 07:56:45;;;;;;;14.05;4.92;;;;;;;26.02;50.44;99180.92;1726796;82;21092;-42
2022/08/19 07:59:12;;;;;;;10.88;4.70;;;;;;;26.08;50.40;99171.34;1726760;82;20986;-42
2022/08/19 08:01:39;;;;;;;17.27;5.10;;;;;;;26.16;50.38;99178.86;1726700;82;21283;-42
2022/08/19 08:09:41;;;;;;;9.40;4.20;;;;;;;26.44;49.96;99181.53;1691647;84;21574;-42
2022/08/19 08:12:16;;;;;;;13.22;5.12;;;;;;;26.53;50.02;99188.46;1692093;84;21624;-42
2022/08/19 08:14:47;;;;;;;9.75;4.70;;;;;;;26.61;49.94;99182.69;1678361;84;21601;-42
2022/08/19 08:17:18;;;;;;;8.35;4.60;;;;;;;26.68;50.03;99181.70;1691849;84;21017;-42
2022/08/19 08:19:45;;;;;;;9.05;4.25;;;;;;;26.78;49.10;99179.02;1692169;84;21023;-42
2022/08/19 08:25:07;;;;;;;7.87;4.78;;;;;;;26.88;48.57;99188.09;1691873;84;21056;-42
2022/08/19 08:27:40;;;;;;;11.30;4.85;;;;;;;26.93;49.20;99192.23;1691435;84;21790;-42
2022/08/19 08:30:11;;;;;;;12.20;4.45;;;;;;;27.02;48.86;99184.59;1691288;84;21050;-42
2022/08/19 08:32:38;;;;;;;9.48;4.10;;;;;;;27.14;48.67;99175.23;1692137;84;20991;-42
2022/08/19 08:35:08;;;;;;;9.80;4.42;;;;;;;27.09;48.28;99162.59;1691674;84;21030;-42
2022/08/19 08:37:35;;;;;;;14.13;4.72;;;;;;;27.40;47.62;99192.81;1691998;84;21048;-42
2022/08/19 08:40:31;;;;;;;8.48;4.62;;;;;;;27.53;47.60;99198.89;1687419;84;21212;-43
2022/08/19 08:43:07;;;;;;;11.08;4.80;;;;;;;27.62;47.04;99196.79;1691959;84;21598;-42
2022/08/19 08:45:38;;;;;;;9.75;4.87;;;;;;;27.64;47.10;99192.89;1691352;84;20996;-42
2022/08/19 08:48:20;;;;;;;11.88;4.72;;;;;;;27.69;47.04;99197.05;1691817;84;21032;-42
2022/08/19 08:50:48;;;;;;;7.00;4.45;;;;;;;27.75;47.08;99196.50;1691736;84;21079;-42
2022/08/19 08:53:18;;;;;;;12.78;4.70;;;;;;;27.84;46.77;99204.76;1687723;84;21144;-42
2022/08/19 08:55:45;;;;;;;13.00;5.12;;;;;;;27.90;46.31;99193.09;1721499;83;20969;-42
2022/08/19 08:58:17;;;;;;;7.47;4.85;;;;;;;27.96;46.74;99186.98;1686540;85;20941;-42
2022/08/19 09:00:47;;;;;;;10.03;4.70;;;;;;;28.06;46.00;99187.66;1721672;82;21060;-42
2022/08/19 09:03:25;;;;;;;11.03;5.03;;;;;;;28.15;46.34;99189.59;1721668;83;21539;-42
2022/08/19 09:06:00;;;;;;;12.68;4.45;;;;;;;28.23;46.11;99186.53;1686845;85;23167;-42
2022/08/19 09:09:07;;;;;;;11.53;4.80;;;;;;;28.26;45.75;99186.36;1721467;83;21009;-42
2022/08/19 09:12:09;;;;;;;14.35;5.40;;;;;;;28.34;45.64;99190.89;1721550;83;21088;-42
2022/08/19 09:14:56;;;;;;;11.18;5.28;;;;;;;28.35;45.47;99188.25;1721308;83;21045;-42
2022/08/19 09:17:30;;;;;;;9.98;4.50;;;;;;;28.31;45.53;99184.91;1721528;83;21088;-42
2022/08/19 09:20:06;;;;;;;10.35;4.92;;;;;;;28.36;45.53;99194.75;1715841;83;21602;-43
2022/08/19 09:22:33;;;;;;;13.15;4.87;;;;;;;28.45;44.95;99193.23;1721589;83;20902;-42
2022/08/19 09:25:00;;;;;;;12.68;5.40;;;;;;;28.56;44.49;99196.04;1721327;83;21035;-42
2022/08/19 09:27:27;;;;;;;11.53;4.90;;;;;;;28.68;44.65;99199.11;1721369;83;21372;-42
2022/08/19 09:29:54;;;;;;;13.85;5.40;;;;;;;28.81;44.71;99203.75;1721570;83;21510;-42
2022/08/19 09:32:22;;;;;;;14.60;5.47;;;;;;;28.92;44.24;99206.69;1721453;83;21551;-42
2022/08/19 09:34:50;;;;;;;12.23;5.28;;;;;;;29.08;44.10;99210.95;1721507;83;21012;-42
2022/08/19 09:37:17;;;;;;;11.65;5.12;;;;;;;29.23;44.06;99207.46;1721425;83;20969;-42
2022/08/19 09:39:44;;;;;;;12.18;4.97;;;;;;;29.40;43.58;99205.64;1721426;83;20994;-42
2022/08/19 09:42:13;;;;;;;10.08;4.83;;;;;;;29.54;43.40;99204.77;1721512;83;21048;-42
2022/08/19 09:44:41;;;;;;;11.63;5.22;;;;;;;29.67;42.42;99196.02;1721661;83;21134;-42
2022/08/19 09:47:09;;;;;;;11.22;4.85;;;;;;;29.78;41.89;99204.49;1721699;83;20985;-42
2022/08/19 09:49:38;;;;;;;13.63;5.20;;;;;;;29.85;42.11;99199.09;1722130;83;20977;-42
2022/08/19 09:52:08;;;;;;;12.30;5.62;;;;;;;30.00;42.29;99203.96;1722979;82;21279;-43
2022/08/19 09:54:35;;;;;;;11.22;5.28;;;;;;;30.13;41.93;99205.08;1726841;83;21016;-42
2022/08/19 09:57:03;;;;;;;13.38;5.40;;;;;;;30.27;41.47;99203.41;1726842;83;21134;-43
2022/08/19 09:59:30;;;;;;;15.15;5.60;;;;;;;30.43;41.42;99205.56;1692059;84;21012;-42
2022/08/19 10:01:57;;;;;;;14.73;5.20;;;;;;;30.59;41.36;99201.37;1691864;84;20964;-42
2022/08/19 10:05:47;;;;;;;14.63;5.30;;;;;;;30.74;40.49;99202.59;1691809;84;21001;-43
2022/08/19 10:06:55;;;;;;;13.48;5.20;;;;;;;30.82;40.36;99200.22;1688208;84;21008;-42
2022/08/19 10:09:23;;;;;;;11.78;5.03;;;;;;;30.88;40.75;99205.22;1691748;84;21338;-42
2022/08/19 10:11:50;;;;;;;9.40;5.20;;;;;;;31.00;40.71;99203.21;1691440;84;21605;-42
2022/08/19 10:14:21;;;;;;;11.35;4.92;;;;;;;31.12;40.33;99210.44;1691979;83;21047;-42
2022/08/19 10:16:45;;;;;;;10.83;4.97;;;;;;;31.22;39.74;99218.75;1691425;84;21606;-42
2022/08/19 10:19:12;;;;;;;12.10;5.08;;;;;;;31.27;40.27;99222.84;1691698;84;21016;-42
2022/08/19 10:21:40;;;;;;;10.68;4.92;;;;;;;31.35;40.07;99219.03;1691775;84;21221;-43
2022/08/19 10:24:07;;;;;;;10.90;5.20;;;;;;;31.47;39.56;99217.78;1691711;84;21490;-42
2022/08/19 10:26:38;;;;;;;15.17;5.00;;;;;;;31.59;39.90;99213.64;1692013;84;21019;-43
2022/08/19 10:29:06;;;;;;;11.48;5.28;;;;;;;31.75;39.68;99215.72;1691749;84;20979;-42
2022/08/19 10:31:33;;;;;;;11.08;5.30;;;;;;;31.88;39.28;99215.98;1691878;84;21055;-42
2022/08/19 10:34:00;;;;;;;11.55;5.30;;;;;;;32.05;39.16;99220.95;1691783;84;21242;-42
2022/08/19 10:36:35;;;;;;;11.73;5.05;;;;;;;32.16;39.24;99225.19;1691732;84;21529;-43
2022/08/19 10:39:06;;;;;;;12.93;5.25;;;;;;;32.26;38.48;99234.88;1692064;84;21029;-42
2022/08/19 10:41:37;;;;;;;11.97;5.50;;;;;;;32.29;38.98;99236.65;1692012;84;21494;-42
2022/08/19 10:44:07;;;;;;;10.25;4.87;;;;;;;32.41;38.64;99233.84;1692121;84;21060;-43
2022/08/19 10:46:38;;;;;;;12.35;5.08;;;;;;;32.60;38.46;99237.64;1666646;84;21107;-42
2022/08/19 10:49:05;;;;;;;13.05;5.10;;;;;;;32.78;37.91;99232.27;1692060;84;21107;-43
2022/08/19 10:54:18;;;;;;;9.40;4.95;;;;;;;33.02;37.37;99232.31;1680952;84;21519;-42
2022/08/19 10:56:51;;;;;;;11.08;5.15;;;;;;;32.97;37.47;99226.84;1679605;85;21524;-43
2022/08/19 10:59:29;;;;;;;13.13;4.97;;;;;;;32.92;37.53;99224.81;1679376;85;23197;-43
2022/08/19 11:02:02;;;;;;;10.58;4.50;;;;;;;33.00;37.88;99222.25;1679359;85;20929;-43
2022/08/19 11:04:31;;;;;;;13.25;5.67;;;;;;;33.08;37.57;99221.19;1679430;85;20984;-43
2022/08/19 11:06:59;;;;;;;8.10;4.80;;;;;;;33.17;37.48;99215.30;1679581;85;21061;-43
2022/08/19 11:09:29;;;;;;;10.88;5.03;;;;;;;33.25;37.55;99222.56;1713876;83;21030;-43
2022/08/19 11:11:56;;;;;;;12.25;4.67;;;;;;;33.29;36.77;99227.27;1713880;83;21228;-43
2022/08/19 11:14:25;;;;;;;8.50;4.95;;;;;;;33.26;37.13;99226.14;1713689;83;21510;-43
2022/08/19 11:16:55;;;;;;;14.45;5.30;;;;;;;33.26;36.58;99229.69;1679431;85;20994;-43
2022/08/19 11:19:22;;;;;;;12.18;5.67;;;;;;;33.10;36.55;99239.70;1713764;83;21806;-42
2022/08/19 11:21:50;;;;;;;15.30;6.35;;;;;;;33.07;37.15;99227.31;1679412;85;21107;-43
2022/08/19 11:24:23;;;;;;;9.25;4.65;;;;;;;33.18;37.38;99228.07;1713705;83;21223;-43
2022/08/19 11:26:52;;;;;;;9.60;4.97;;;;;;;33.23;36.75;99227.16;1713740;83;21556;-43
2022/08/19 11:29:21;;;;;;;13.20;5.23;;;;;;;33.09;37.25;99228.34;1679459;85;20980;-43
2022/08/19 11:31:49;;;;;;;11.97;5.22;;;;;;;32.87;37.37;99235.45;1679316;85;21738;-43
2022/08/19 11:34:20;;;;;;;8.53;4.80;;;;;;;32.76;37.74;99231.27;1679567;85;21546;-43
2022/08/19 11:36:47;;;;;;;9.13;5.22;;;;;;;32.76;38.12;99232.03;1679205;85;21269;-43
2022/08/19 11:39:16;;;;;;;9.38;4.60;;;;;;;32.77;38.09;99237.01;1679110;85;21076;-43
2022/08/19 11:41:43;;;;;;;9.95;4.60;;;;;;;32.92;37.59;99233.91;1679400;85;21036;-43
2022/08/19 11:44:10;;;;;;;11.53;4.50;;;;;;;33.09;37.06;99236.00;1679223;85;21052;-42
2022/08/19 11:46:37;;;;;;;11.12;4.92;;;;;;;33.28;36.50;99234.80;1714176;83;21045;-43
2022/08/19 11:49:09;;;;;;;11.93;4.15;;;;;;;33.51;36.25;99234.16;1714051;82;21130;-43
2022/08/19 11:51:35;;;;;;;9.90;4.35;;;;;;;33.74;35.89;99240.45;1679353;85;21096;-43
2022/08/19 11:54:03;;;;;;;10.60;5.10;;;;;;;33.83;35.51;99241.54;1681687;85;21091;-43
2022/08/19 11:56:31;;;;;;;8.05;4.30;;;;;;;33.77;35.11;99240.81;1721766;83;21030;-43